• Join FlightAware (Why Join?)
  • Login
  • US Flag 
11:06AM EDT


 

Airport Tracker/Info


-or-


 

Live Flight TrackerFlight Track Log ✈ CSN6840 ✈ 29-Nov-2013 ✈ ZGGG / CAN - ZWWW / URC

Flight Track Log - Related Links

Times and Time Zones

All times are in EST time to prevent confusion due to time zone crossing. See the CSN6840 flight status page for this flight to view local times or setup timezone preferences in your user account.

Time Position Orientation Groundspeed Altitude Reporting Facility
EST Latitude Longitude Course Direction KTS MPH feet Rate Location/Type
09:47PM 23.4718 113.2271 320° Northwest  Level Estimated
09:48PM 23.5511 113.1554 320° Northwest  Level Estimated
09:49PM 23.6305 113.0835 320° Northwest  Level Estimated
09:50PM 23.7097 113.0116 320° Northwest  Level Estimated
09:51PM 23.7890 112.9396 320° Northwest  Level Estimated
09:52PM 23.8682 112.8675 320° Northwest  Level Estimated
09:53PM 23.9473 112.7953 320° Northwest  Level Estimated
09:54PM 24.0265 112.7230 320° Northwest  Level Estimated
09:55PM 24.1056 112.6506 320° Northwest  Level Estimated
09:56PM 24.1847 112.5782 320° Northwest  Level Estimated
09:57PM 24.2637 112.5056 320° Northwest  Level Estimated
09:58PM 24.3427 112.4330 320° Northwest  Level Estimated
09:59PM 24.4217 112.3603 320° Northwest  Level Estimated
10:00PM 24.5006 112.2874 320° Northwest  Level Estimated
10:01PM 24.5795 112.2145 320° Northwest  Level Estimated
10:02PM 24.6584 112.1415 320° Northwest  Level Estimated
10:03PM 24.7372 112.0684 320° Northwest  Level Estimated
10:04PM 24.8160 111.9952 320° Northwest  Level Estimated
10:05PM 24.8948 111.9219 320° Northwest  Level Estimated
10:06PM 24.9735 111.8486 320° Northwest  Level Estimated
10:07PM 25.0522 111.7751 320° Northwest  Level Estimated
10:08PM 25.1308 111.7015 320° Northwest  Level Estimated
10:09PM 25.2094 111.6279 320° Northwest  Level Estimated
10:10PM 25.2880 111.5541 320° Northwest  Level Estimated
10:11PM 25.3665 111.4802 320° Northwest  Level Estimated
10:12PM 25.4450 111.4063 320° Northwest  Level Estimated
10:13PM 25.5235 111.3323 320° Northwest  Level Estimated
10:14PM 25.6019 111.2581 320° Northwest  Level Estimated
10:15PM 25.6803 111.1839 320° Northwest  Level Estimated
10:16PM 25.7587 111.1095 319° Northwest  Level Estimated
10:17PM 25.8370 111.0351 319° Northwest  Level Estimated
10:18PM 25.9153 110.9606 319° Northwest  Level Estimated
10:19PM 25.9935 110.8859 319° Northwest  Level Estimated
10:20PM 26.0717 110.8112 319° Northwest  Level Estimated
10:21PM 26.1499 110.7364 319° Northwest  Level Estimated
10:22PM 26.2280 110.6615 319° Northwest  Level Estimated
10:23PM 26.3061 110.5864 319° Northwest  Level Estimated
10:24PM 26.3841 110.5113 319° Northwest  Level Estimated
10:25PM 26.4621 110.4361 319° Northwest  Level Estimated
10:26PM 26.5401 110.3607 319° Northwest  Level Estimated
10:27PM 26.6180 110.2853 319° Northwest  Level Estimated
10:28PM 26.6959 110.2097 319° Northwest  Level Estimated
10:29PM 26.7738 110.1341 319° Northwest  Level Estimated
10:30PM 26.8516 110.0584 319° Northwest  Level Estimated
10:31PM 26.9294 109.9825 319° Northwest  Level Estimated
10:32PM 27.0071 109.9065 319° Northwest  Level Estimated
10:33PM 27.0848 109.8305 319° Northwest  Level Estimated
10:34PM 27.1624 109.7543 319° Northwest  Level Estimated
10:35PM 27.2400 109.6780 319° Northwest  Level Estimated
10:36PM 27.3176 109.6017 319° Northwest  Level Estimated
10:37PM 27.3951 109.5252 319° Northwest  Level Estimated
10:38PM 27.4726 109.4486 319° Northwest  Level Estimated
10:39PM 27.5500 109.3719 319° Northwest  Level Estimated
10:40PM 27.6274 109.2951 319° Northwest  Level Estimated
10:41PM 27.7048 109.2182 319° Northwest  Level Estimated
10:42PM 27.7821 109.1411 319° Northwest  Level Estimated
10:43PM 27.8593 109.0640 319° Northwest  Level Estimated
10:44PM 27.9366 108.9867 319° Northwest  Level Estimated
10:45PM 28.0137 108.9094 319° Northwest  Level Estimated
10:46PM 28.0909 108.8319 318° Northwest  Level Estimated
10:47PM 28.1680 108.7543 318° Northwest  Level Estimated
10:48PM 28.2450 108.6766 318° Northwest  Level Estimated
10:49PM 28.3220 108.5988 318° Northwest  Level Estimated
10:50PM 28.3990 108.5209 318° Northwest  Level Estimated
10:51PM 28.4759 108.4429 318° Northwest  Level Estimated
10:52PM 28.5528 108.3648 318° Northwest  Level Estimated
10:53PM 28.6296 108.2865 318° Northwest  Level Estimated
10:54PM 28.7064 108.2081 318° Northwest  Level Estimated
10:55PM 28.7831 108.1296 318° Northwest  Level Estimated
10:56PM 28.8598 108.0510 318° Northwest  Level Estimated
10:57PM 28.9365 107.9723 318° Northwest  Level Estimated
10:58PM 29.0131 107.8935 318° Northwest  Level Estimated
10:59PM 29.0896 107.8145 318° Northwest  Level Estimated
11:00PM 29.1661 107.7355 318° Northwest  Level Estimated
11:01PM 29.2426 107.6563 318° Northwest  Level Estimated
11:02PM 29.3190 107.5770 318° Northwest  Level Estimated
11:03PM 29.3954 107.4975 318° Northwest  Level Estimated
11:04PM 29.4717 107.4180 318° Northwest  Level Estimated
11:05PM 29.5480 107.3383 318° Northwest  Level Estimated
11:06PM 29.6242 107.2585 318° Northwest  Level Estimated
11:07PM 29.7004 107.1786 318° Northwest  Level Estimated
11:08PM 29.7765 107.0986 318° Northwest  Level Estimated
11:09PM 29.8526 107.0184 318° Northwest  Level Estimated
11:10PM 29.9286 106.9382 318° Northwest  Level Estimated
11:11PM 30.0046 106.8578 318° Northwest  Level Estimated
11:12PM 30.0805 106.7773 317° Northwest  Level Estimated
11:13PM 30.1564 106.6966 317° Northwest  Level Estimated
11:14PM 30.2323 106.6159 317° Northwest  Level Estimated
11:15PM 30.3081 106.5350 317° Northwest  Level Estimated
11:16PM 30.3838 106.4540 317° Northwest  Level Estimated
11:17PM 30.4595 106.3728 317° Northwest  Level Estimated
11:18PM 30.5351 106.2915 317° Northwest  Level Estimated
11:19PM 30.6107 106.2102 317° Northwest  Level Estimated
11:20PM 30.6863 106.1286 317° Northwest  Level Estimated
11:21PM 30.7617 106.0470 317° Northwest  Level Estimated
11:22PM 30.8372 105.9652 317° Northwest  Level Estimated
11:23PM 30.9125 105.8833 317° Northwest  Level Estimated
11:24PM 30.9879 105.8013 317° Northwest  Level Estimated
11:25PM 31.0632 105.7191 317° Northwest  Level Estimated
11:26PM 31.1384 105.6368 317° Northwest  Level Estimated
11:27PM 31.2136 105.5544 317° Northwest  Level Estimated
11:28PM 31.2887 105.4718 317° Northwest  Level Estimated
11:29PM 31.3638 105.3892 317° Northwest  Level Estimated
11:30PM 31.4388 105.3063 317° Northwest  Level Estimated
11:31PM 31.5137 105.2234 317° Northwest  Level Estimated
11:32PM 31.5886 105.1403 317° Northwest  Level Estimated
11:33PM 31.6635 105.0571 317° Northwest  Level Estimated
11:34PM 31.7383 104.9737 317° Northwest  Level Estimated
11:35PM 31.8130 104.8903 317° Northwest  Level Estimated
11:36PM 31.8877 104.8066 316° Northwest  Level Estimated
11:37PM 31.9624 104.7229 316° Northwest  Level Estimated
11:38PM 32.0369 104.6390 316° Northwest  Level Estimated
11:39PM 32.1115 104.5549 316° Northwest  Level Estimated
11:40PM 32.1860 104.4708 316° Northwest  Level Estimated
11:41PM 32.2604 104.3865 316° Northwest  Level Estimated
11:42PM 32.3347 104.3020 316° Northwest  Level Estimated
11:43PM 32.4090 104.2175 316° Northwest  Level Estimated
11:44PM 32.4833 104.1327 316° Northwest  Level Estimated
11:45PM 32.5575 104.0479 316° Northwest  Level Estimated
11:46PM 32.6316 103.9629 316° Northwest  Level Estimated
11:47PM 32.7057 103.8777 316° Northwest  Level Estimated
11:48PM 32.7797 103.7924 316° Northwest  Level Estimated
11:49PM 32.8536 103.7070 316° Northwest  Level Estimated
11:50PM 32.9276 103.6214 316° Northwest  Level Estimated
11:51PM 33.0014 103.5357 316° Northwest  Level Estimated
11:52PM 33.0752 103.4499 316° Northwest  Level Estimated
11:53PM 33.1489 103.3639 316° Northwest  Level Estimated
11:54PM 33.2226 103.2777 316° Northwest  Level Estimated
11:55PM 33.2962 103.1914 316° Northwest  Level Estimated
11:56PM 33.3697 103.1050 316° Northwest  Level Estimated
11:57PM 33.4432 103.0184 315° West  Level Estimated
11:58PM 33.5167 102.9317 315° West  Level Estimated
11:59PM 33.5900 102.8448 315° West  Level Estimated
12:00AM 33.6633 102.7578 315° West  Level Estimated
12:01AM 33.7366 102.6706 315° West  Level Estimated
12:02AM 33.8097 102.5833 315° West  Level Estimated
12:03AM 33.8829 102.4958 315° West  Level Estimated
12:04AM 33.9559 102.4082 315° West  Level Estimated
12:05AM 34.0289 102.3204 315° West  Level Estimated
12:06AM 34.1018 102.2325 315° West  Level Estimated
12:07AM 34.1747 102.1444 315° West  Level Estimated
12:08AM 34.2475 102.0562 315° West  Level Estimated
12:09AM 34.3203 101.9678 315° West  Level Estimated
12:10AM 34.3930 101.8793 315° West  Level Estimated
12:11AM 34.4656 101.7906 315° West  Level Estimated
12:12AM 34.5381 101.7018 315° West  Level Estimated
12:13AM 34.6106 101.6128 315° West  Level Estimated
12:14AM 34.6830 101.5236 315° West  Level Estimated
12:15AM 34.7554 101.4343 315° West  Level Estimated
12:16AM 34.8277 101.3449 315° West  Level Estimated
12:17AM 34.8999 101.2552 315° West  Level Estimated
12:18AM 34.9721 101.1655 314° West  Level Estimated
12:19AM 35.0442 101.0755 314° West  Level Estimated
12:20AM 35.1162 100.9854 314° West  Level Estimated
12:21AM 35.1882 100.8952 314° West  Level Estimated
12:22AM 35.2601 100.8048 314° West  Level Estimated
12:23AM 35.3319 100.7142 314° West  Level Estimated
12:24AM 35.4037 100.6235 314° West  Level Estimated
12:25AM 35.4753 100.5326 314° West  Level Estimated
12:26AM 35.5470 100.4415 314° West  Level Estimated
12:27AM 35.6185 100.3503 314° West  Level Estimated
12:28AM 35.6900 100.2589 314° West  Level Estimated
12:29AM 35.7614 100.1674 314° West  Level Estimated
12:30AM 35.8328 100.0756 314° West  Level Estimated
12:31AM 35.9041 99.9838 314° West  Level Estimated
12:32AM 35.9753 99.8917 314° West  Level Estimated
12:33AM 36.0464 99.7995 314° West  Level Estimated
12:34AM 36.1175 99.7071 314° West  Level Estimated
12:35AM 36.1885 99.6146 314° West  Level Estimated
12:36AM 36.2594 99.5219 314° West  Level Estimated
12:37AM 36.3303 99.4290 313° West  Level Estimated
12:38AM 36.4011 99.3360 313° West  Level Estimated
12:39AM 36.4718 99.2427 313° West  Level Estimated
12:40AM 36.5424 99.1493 313° West  Level Estimated
12:41AM 36.6130 99.0558 313° West  Level Estimated
12:42AM 36.6834 98.9621 313° West  Level Estimated
12:43AM 36.7539 98.8681 313° West  Level Estimated
12:44AM 36.8242 98.7741 313° West  Level Estimated
12:45AM 36.8945 98.6798 313° West  Level Estimated
12:46AM 36.9647 98.5854 313° West  Level Estimated
12:47AM 37.0348 98.4908 313° West  Level Estimated
12:48AM 37.1048 98.3960 313° West  Level Estimated
12:49AM 37.1748 98.3011 313° West  Level Estimated
12:50AM 37.2447 98.2060 313° West  Level Estimated
12:51AM 37.3145 98.1107 313° West  Level Estimated
12:52AM 37.3843 98.0152 313° West  Level Estimated
12:53AM 37.4539 97.9195 313° West  Level Estimated
12:54AM 37.5235 97.8237 312° West  Level Estimated
12:55AM 37.5930 97.7277 312° West  Level Estimated
12:56AM 37.6624 97.6315 312° West  Level Estimated
12:57AM 37.7318 97.5351 312° West  Level Estimated
12:58AM 37.8011 97.4386 312° West  Level Estimated
12:59AM 37.8703 97.3419 312° West  Level Estimated
01:00AM 37.9394 97.2449 312° West  Level Estimated
01:01AM 38.0084 97.1478 312° West  Level Estimated
01:02AM 38.0774 97.0506 312° West  Level Estimated
01:03AM 38.1462 96.9531 312° West  Level Estimated
01:04AM 38.2150 96.8555 312° West  Level Estimated
01:05AM 38.2837 96.7576 312° West  Level Estimated
01:06AM 38.3524 96.6596 312° West  Level Estimated
01:07AM 38.4209 96.5614 312° West  Level Estimated
01:08AM 38.4894 96.4630 312° West  Level Estimated
01:09AM 38.5578 96.3644 312° West  Level Estimated
01:10AM 38.6261 96.2657 312° West  Level Estimated
01:11AM 38.6943 96.1667 311° West  Level Estimated
01:12AM 38.7624 96.0676 311° West  Level Estimated
01:13AM 38.8305 95.9682 311° West  Level Estimated
01:14AM 38.8984 95.8687 311° West  Level Estimated
01:15AM 38.9663 95.7690 311° West  Level Estimated
01:16AM 39.0341 95.6691 311° West  Level Estimated
01:17AM 39.1018 95.5690 311° West  Level Estimated
01:18AM 39.1695 95.4687 311° West  Level Estimated
01:19AM 39.2370 95.3683 311° West  Level Estimated
01:20AM 39.3045 95.2676 311° West  Level Estimated
01:21AM 39.3718 95.1667 311° West  Level Estimated
01:22AM 39.4391 95.0657 311° West  Level Estimated
01:23AM 39.5063 94.9644 311° West  Level Estimated
01:24AM 39.5734 94.8630 311° West  Level Estimated
01:25AM 39.6404 94.7613 311° West  Level Estimated
01:26AM 39.7074 94.6594 311° West  Level Estimated
01:27AM 39.7742 94.5574 310° West  Level Estimated
01:28AM 39.8409 94.4552 310° West  Level Estimated
01:29AM 39.9076 94.3527 310° West  Level Estimated
01:30AM 39.9742 94.2501 310° West  Level Estimated
01:31AM 40.0406 94.1472 310° West  Level Estimated
01:32AM 40.1070 94.0442 310° West  Level Estimated
01:33AM 40.1733 93.9410 310° West  Level Estimated
01:34AM 40.2395 93.8375 310° West  Level Estimated
01:35AM 40.3056 93.7339 310° West  Level Estimated
01:36AM 40.3717 93.6300 310° West  Level Estimated
01:37AM 40.4376 93.5260 310° West  Level Estimated
01:38AM 40.5034 93.4217 310° West  Level Estimated
01:39AM 40.5692 93.3173 310° West  Level Estimated
01:40AM 40.6348 93.2126 310° West  Level Estimated
01:41AM 40.7004 93.1077 310° West  Level Estimated
01:42AM 40.7658 93.0026 309° West  Level Estimated
01:43AM 40.8312 92.8973 309° West  Level Estimated
01:44AM 40.8964 92.7919 309° West  Level Estimated
01:45AM 40.9616 92.6862 309° West  Level Estimated
01:46AM 41.0267 92.5803 309° West  Level Estimated
01:47AM 41.0916 92.4741 309° West  Level Estimated
01:48AM 41.1565 92.3678 309° West  Level Estimated
01:49AM 41.2213 92.2613 309° West  Level Estimated
01:50AM 41.2860 92.1545 309° West  Level Estimated
01:51AM 41.3506 92.0475 309° West  Level Estimated
01:52AM 41.4150 91.9404 309° West  Level Estimated
01:53AM 41.4794 91.8330 309° West  Level Estimated
01:54AM 41.5437 91.7254 309° West  Level Estimated
01:55AM 41.6079 91.6176 309° West  Level Estimated
01:56AM 41.6720 91.5095 308° West  Level Estimated
01:57AM 41.7359 91.4013 308° West  Level Estimated
01:58AM 41.7998 91.2928 308° West  Level Estimated
01:59AM 41.8636 91.1841 308° West  Level Estimated
02:00AM 41.9272 91.0752 308° West  Level Estimated
02:01AM 41.9908 90.9661 308° West  Level Estimated
02:02AM 42.0543 90.8568 308° West  Level Estimated
02:03AM 42.1176 90.7473 308° West  Level Estimated
02:04AM 42.1809 90.6375 308° West  Level Estimated
02:05AM 42.2440 90.5275 308° West  Level Estimated
02:06AM 42.3071 90.4173 308° West  Level Estimated
02:07AM 42.3700 90.3069 308° West  Level Estimated
02:08AM 42.4329 90.1962 308° West  Level Estimated
02:09AM 42.4956 90.0853 308° West  Level Estimated
02:10AM 42.5582 89.9743 307° West  Level Estimated
02:11AM 42.6207 89.8629 307° West  Level Estimated
02:12AM 42.6831 89.7514 307° West  Level Estimated
02:13AM 42.7454 89.6396 307° West  Level Estimated
02:14AM 42.8076 89.5276 307° West  Level Estimated
02:15AM 42.8697 89.4154 307° West  Level Estimated
02:16AM 42.9317 89.3030 307° West  Level Estimated
02:17AM 42.9935 89.1903 307° West  Level Estimated
02:18AM 43.0553 89.0774 307° West  Level Estimated
02:19AM 43.1169 88.9643 307° West  Level Estimated
02:20AM 43.1785 88.8510 307° West  Level Estimated
02:21AM 43.2399 88.7374 307° West  Level Estimated
02:22AM 43.3012 88.6236 307° West  Level Estimated
02:23AM 43.3624 88.5095 306° West  Level Estimated
02:24AM 43.4234 88.3953 306° West  Level Estimated
02:25AM 43.4844 88.2808 306° West  Level Estimated
02:26AM 43.5452 88.1660 306° West  Level Estimated
02:27AM 43.6059 88.0511 306° West  Level Estimated
02:28AM 43.6666 87.9359 306° West  Level Estimated
02:29AM 43.7271 87.8205 306° West  Level Estimated
02:30AM 43.7874 87.7048 306° West  Level Estimated
02:31AM 43.8477 87.5889 306° West  Level Estimated
02:32AM 43.9071 87.4742 306° West  Level Estimated
02:33AM 43.9071 87.4742 144° Southeast  Level Estimated
02:34AM 43.9071 87.4742 144° Southeast  Level Estimated
02:35AM 43.9071 87.4742 144° Southeast  Level Estimated
02:36AM 43.9071 87.4742 144° Southeast  Level Estimated
02:37AM 43.9071 87.4742 144° Southeast  Level Estimated
02:38AM 43.9071 87.4742 144° Southeast  Level Estimated
02:39AM 43.9071 87.4742 144° Southeast  Level Estimated
02:40AM 43.9071 87.4742 144° Southeast  Level Estimated
02:41AM 43.9071 87.4742 144° Southeast  Level Estimated
02:42AM 43.9071 87.4742 144° Southeast  Level Estimated
02:43AM 43.9071 87.4742 144° Southeast  Level Estimated
02:44AM 43.9071 87.4742 144° Southeast  Level Estimated
02:45AM 43.9071 87.4742 144° Southeast  Level Estimated
02:46AM 43.9071 87.4742 144° Southeast  Level Estimated
02:47AM 43.9071 87.4742 144° Southeast  Level Estimated
02:48AM 43.9071 87.4742 144° Southeast  Level Estimated